createdAt,value
2019-02-12T00:00:12.222Z,3.50
2019-02-12T00:02:40.603Z,2.80
2019-02-12T00:05:08.991Z,3.10
2019-02-12T00:07:37.385Z,2.43
2019-02-12T00:10:06.877Z,2.20
2019-02-12T00:12:35.236Z,4.10
2019-02-12T00:15:04.634Z,2.90
2019-02-12T00:17:33.024Z,3.70
2019-02-12T00:20:01.418Z,4.50
2019-02-12T00:22:29.855Z,2.93
2019-02-12T00:24:58.215Z,3.23
2019-02-12T00:27:26.599Z,2.93
2019-02-12T00:29:54.978Z,3.60
2019-02-12T00:32:23.457Z,3.47
2019-02-12T00:34:51.841Z,3.10
2019-02-12T00:37:20.352Z,3.77
2019-02-12T00:39:48.706Z,3.10
2019-02-12T00:42:17.095Z,3.63
2019-02-12T00:44:45.478Z,3.87
2019-02-12T00:47:13.875Z,3.67
2019-02-12T00:49:42.342Z,3.20
2019-02-12T00:52:10.735Z,2.43
2019-02-12T00:54:39.122Z,3.30
2019-02-12T00:57:07.510Z,2.75
2019-02-12T00:59:35.915Z,3.97
2019-02-12T01:02:04.377Z,3.40
2019-02-12T01:04:32.761Z,3.00
2019-02-12T01:07:01.145Z,3.27
2019-02-12T01:09:29.642Z,3.20
2019-02-12T01:11:58.141Z,3.20
2019-02-12T01:14:26.516Z,2.53
2019-02-12T01:16:54.905Z,4.10
2019-02-12T01:19:23.286Z,4.13
2019-02-12T01:21:51.678Z,2.97
2019-02-12T01:24:20.224Z,3.93
2019-02-12T01:26:48.610Z,3.30
2019-02-12T01:29:17.074Z,3.05
2019-02-12T01:31:45.463Z,3.27
2019-02-12T01:34:13.849Z,2.87
2019-02-12T01:36:42.244Z,3.13
2019-02-12T01:39:11.962Z,3.20
2019-02-12T01:41:40.356Z,2.70
2019-02-12T01:44:08.741Z,3.33
2019-02-12T01:46:37.176Z,3.50
2019-02-12T01:49:05.557Z,3.75
2019-02-12T01:51:35.301Z,4.20
2019-02-12T01:54:03.714Z,3.10
2019-02-12T01:56:32.107Z,3.67
2019-02-12T01:59:00.509Z,2.60
2019-02-12T02:01:28.903Z,3.63
2019-02-12T02:03:57.278Z,3.07
2019-02-12T02:06:25.662Z,3.37
2019-02-12T02:08:54.046Z,3.47
2019-02-12T02:11:22.427Z,2.13
2019-02-12T02:13:50.824Z,3.13
2019-02-12T02:16:19.214Z,4.10
2019-02-12T02:18:47.601Z,2.80
2019-02-12T02:21:15.981Z,2.73
2019-02-12T02:23:44.381Z,3.20
2019-02-12T02:26:12.763Z,4.23
2019-02-12T02:28:41.147Z,7.20
2019-02-12T02:31:09.526Z,3.50
2019-02-12T02:33:37.901Z,3.70
2019-02-12T02:36:06.270Z,3.20
2019-02-12T02:38:34.660Z,3.83
2019-02-12T02:41:03.031Z,3.70
2019-02-12T02:43:31.427Z,3.37
2019-02-12T02:46:00.443Z,3.00
2019-02-12T02:48:28.826Z,3.90
2019-02-12T02:50:57.199Z,3.50
2019-02-12T02:53:25.585Z,3.90
2019-02-12T02:55:53.959Z,4.07
2019-02-12T02:58:22.368Z,2.83
2019-02-12T03:00:50.713Z,3.50
2019-02-12T03:03:19.096Z,3.20
2019-02-12T03:05:47.470Z,3.57
2019-02-12T03:08:15.855Z,4.27
2019-02-12T03:10:44.233Z,2.85
2019-02-12T03:13:12.617Z,3.10
2019-02-12T03:15:40.988Z,2.80
2019-02-12T03:18:09.384Z,2.90
2019-02-12T03:20:37.759Z,3.22
2019-02-12T03:23:06.139Z,3.20
2019-02-12T03:25:34.506Z,3.53
2019-02-12T03:28:02.902Z,3.43
2019-02-12T03:30:31.277Z,3.70
2019-02-12T03:32:59.657Z,5.17
2019-02-12T03:35:28.028Z,2.37
2019-02-12T03:37:56.409Z,2.73
2019-02-12T03:40:24.791Z,3.10
2019-02-12T03:42:53.171Z,3.07
2019-02-12T03:45:21.542Z,3.30
2019-02-12T03:47:49.920Z,4.53
2019-02-12T03:50:18.302Z,3.40
2019-02-12T03:52:46.681Z,3.20
2019-02-12T03:55:15.125Z,2.97
2019-02-12T03:57:43.572Z,3.02
2019-02-12T04:00:17.993Z,2.63
2019-02-12T04:03:00.350Z,3.00
2019-02-12T04:05:28.722Z,2.90
2019-02-12T04:07:57.099Z,3.90
2019-02-12T04:10:25.720Z,4.73
2019-02-12T04:12:54.098Z,2.93
2019-02-12T04:15:22.534Z,3.77
2019-02-12T04:17:50.908Z,4.40
2019-02-12T04:20:19.285Z,2.60
2019-02-12T04:22:47.662Z,3.20
2019-02-12T04:25:16.043Z,4.27
2019-02-12T04:27:44.412Z,3.73
2019-02-12T04:30:12.864Z,2.60
2019-02-12T04:32:41.235Z,2.87
2019-02-12T04:35:09.614Z,4.10
2019-02-12T04:37:37.987Z,3.73
2019-02-12T04:40:09.515Z,3.40
2019-02-12T04:42:38.124Z,3.17
2019-02-12T04:45:09.581Z,3.00
2019-02-12T04:47:37.974Z,3.07
2019-02-12T04:50:09.761Z,4.00
2019-02-12T04:52:38.147Z,3.77
2019-02-12T04:55:08.395Z,2.63
2019-02-12T04:57:36.761Z,3.57
2019-02-12T05:00:10.926Z,3.23
2019-02-12T05:02:39.314Z,3.37
2019-02-12T05:05:09.835Z,3.10
2019-02-12T05:07:38.199Z,3.07
2019-02-12T05:10:18.557Z,3.02
2019-02-12T05:12:46.933Z,3.87
2019-02-12T05:15:15.306Z,3.73
2019-02-12T05:17:43.678Z,4.03
2019-02-12T05:20:14.650Z,3.58
2019-02-12T05:22:43.902Z,3.50
2019-02-12T05:25:13.124Z,3.00
2019-02-12T05:27:41.533Z,3.43
2019-02-12T05:30:14.318Z,2.27
2019-02-12T05:32:42.708Z,3.23
2019-02-12T05:35:11.074Z,3.40
2019-02-12T05:37:39.466Z,3.47
2019-02-12T05:40:09.968Z,3.95
2019-02-12T05:42:38.342Z,4.07
2019-02-12T05:45:12.039Z,2.90
2019-02-12T05:47:40.419Z,3.00
2019-02-12T05:50:11.426Z,3.53
2019-02-12T05:52:39.796Z,5.00
2019-02-12T05:55:08.324Z,3.00
2019-02-12T05:57:36.697Z,3.47
2019-02-12T06:00:10.911Z,2.33
2019-02-12T06:02:39.285Z,3.03
2019-02-12T06:05:07.832Z,3.93
2019-02-12T06:07:36.270Z,3.00
2019-02-12T06:10:07.375Z,2.80
2019-02-12T06:12:35.748Z,3.10
2019-02-12T06:15:05.764Z,3.00
2019-02-12T06:17:34.129Z,4.07
2019-02-12T06:20:02.505Z,3.17
2019-02-12T06:22:32.013Z,3.63
2019-02-12T06:25:00.640Z,2.93
2019-02-12T06:27:29.035Z,2.80
2019-02-12T06:29:57.424Z,3.70
2019-02-12T06:32:25.797Z,4.97
2019-02-12T06:34:54.196Z,4.60
2019-02-12T06:37:22.592Z,4.97
2019-02-12T06:39:51.053Z,4.70
2019-02-12T06:42:19.451Z,3.90
2019-02-12T06:44:47.918Z,5.97
2019-02-12T06:47:16.303Z,5.03
2019-02-12T06:49:44.689Z,4.00
2019-02-12T06:52:13.125Z,3.77
2019-02-12T06:54:41.515Z,4.60
2019-02-12T06:57:09.895Z,5.10
2019-02-12T06:59:38.286Z,6.37
2019-02-12T07:02:43.206Z,6.33
2019-02-12T07:05:11.592Z,5.93
2019-02-12T07:07:49.050Z,5.90
2019-02-12T07:10:17.456Z,5.60
2019-02-12T07:12:51.686Z,5.95
2019-02-12T07:15:23.106Z,7.90
2019-02-12T07:17:59.935Z,5.93
2019-02-12T07:20:31.460Z,4.60
2019-02-12T07:23:05.734Z,4.73
2019-02-12T07:25:48.915Z,5.40
2019-02-12T07:28:38.889Z,5.17
2019-02-12T07:31:16.287Z,6.47
2019-02-12T07:34:04.675Z,6.67
2019-02-12T07:37:09.329Z,6.27
2019-02-12T07:39:40.747Z,7.20
2019-02-12T07:42:21.199Z,5.37
2019-02-12T07:45:08.897Z,7.00
2019-02-12T07:48:07.892Z,4.40
2019-02-12T07:50:51.330Z,5.60
2019-02-12T07:53:31.003Z,5.13
2019-02-12T07:56:04.924Z,5.70
2019-02-12T07:58:58.899Z,5.50
2019-02-12T08:01:51.714Z,5.60
2019-02-12T08:04:54.722Z,13.03
2019-02-12T08:07:45.775Z,8.97
2019-02-12T08:10:36.686Z,8.35
2019-02-12T08:13:13.651Z,7.90
2019-02-12T08:15:54.018Z,9.13
2019-02-12T08:18:31.287Z,9.97
2019-02-12T08:21:11.269Z,8.60
2019-02-12T08:24:16.080Z,9.63
2019-02-12T08:26:53.189Z,8.03
2019-02-12T08:29:39.437Z,9.03
2019-02-12T08:32:19.419Z,8.47
2019-02-12T08:35:08.822Z,9.45
2019-02-12T08:37:52.274Z,8.00
2019-02-12T08:40:29.755Z,8.30
2019-02-12T08:43:01.179Z,8.27
2019-02-12T08:45:41.754Z,7.77
2019-02-12T08:48:34.176Z,7.77
2019-02-12T08:51:14.764Z,7.40
2019-02-12T08:54:19.481Z,6.57
2019-02-12T08:57:09.335Z,7.77
2019-02-12T09:00:03.631Z,5.20
2019-02-12T09:02:57.912Z,6.50
2019-02-12T09:05:32.060Z,7.47
2019-02-12T09:08:03.499Z,7.37
2019-02-12T09:10:37.804Z,9.13
2019-02-12T09:13:21.270Z,6.90
2019-02-12T09:16:09.693Z,6.70
2019-02-12T09:18:47.128Z,8.03
2019-02-12T09:21:36.887Z,7.13
2019-02-12T09:24:20.207Z,7.97
2019-02-12T09:26:54.419Z,8.50
2019-02-12T09:29:42.990Z,9.13
2019-02-12T09:32:38.092Z,6.83
2019-02-12T09:35:12.663Z,6.60
2019-02-12T09:37:59.247Z,7.50
2019-02-12T09:40:39.775Z,7.67
2019-02-12T09:43:20.303Z,6.50
2019-02-12T09:46:00.283Z,7.10
2019-02-12T09:48:43.521Z,7.10
2019-02-12T09:51:14.982Z,6.07
2019-02-12T09:53:55.058Z,5.77
2019-02-12T09:56:26.486Z,7.00
2019-02-12T09:59:00.551Z,7.00
2019-02-12T10:01:56.217Z,7.20
2019-02-12T10:04:45.627Z,6.80
2019-02-12T10:07:19.689Z,6.77
2019-02-12T10:09:57.276Z,7.23
2019-02-12T10:12:40.973Z,8.30
2019-02-12T10:15:30.007Z,7.57
2019-02-12T10:18:10.599Z,7.30
2019-02-12T10:20:50.999Z,6.13
2019-02-12T10:23:39.043Z,8.80
2019-02-12T10:26:10.760Z,7.53
2019-02-12T10:29:14.211Z,5.53
2019-02-12T10:31:41.734Z,4.85
2019-02-12T10:34:10.700Z,6.20
2019-02-12T10:36:39.250Z,6.40
2019-02-12T10:39:09.265Z,7.43
2019-02-12T10:41:37.689Z,7.07
2019-02-12T10:44:06.032Z,7.10
2019-02-12T10:46:34.411Z,7.20
2019-02-12T10:49:02.796Z,6.10
2019-02-12T10:51:31.190Z,6.90
2019-02-12T10:53:59.581Z,6.20
2019-02-12T10:56:27.959Z,6.57
2019-02-12T10:58:56.351Z,6.90
2019-02-12T11:01:24.726Z,8.40
2019-02-12T11:03:53.117Z,7.40
2019-02-12T11:06:21.493Z,7.37
2019-02-12T11:08:49.882Z,6.20
2019-02-12T11:11:18.252Z,5.67
2019-02-12T11:13:46.635Z,5.33
2019-02-12T11:16:15.010Z,6.40
2019-02-12T11:18:43.400Z,6.73
2019-02-12T11:21:12.342Z,6.67
2019-02-12T11:23:40.836Z,5.33
2019-02-12T11:26:09.213Z,7.33
2019-02-12T11:28:37.597Z,6.27
2019-02-12T11:31:06.141Z,6.03
2019-02-12T11:33:34.647Z,5.73
2019-02-12T11:36:03.025Z,7.00
2019-02-12T11:38:31.407Z,6.47
2019-02-12T11:40:59.792Z,5.53
2019-02-12T11:43:28.186Z,6.63
2019-02-12T11:45:56.562Z,4.37
2019-02-12T11:48:24.941Z,5.10
2019-02-12T11:50:53.317Z,6.43
2019-02-12T11:53:21.698Z,6.60
2019-02-12T11:55:50.073Z,6.03
2019-02-12T11:58:18.477Z,5.33
2019-02-12T12:00:48.490Z,5.37
2019-02-12T12:03:16.872Z,5.27
2019-02-12T12:05:45.243Z,6.73
2019-02-12T12:08:13.631Z,8.07
2019-02-12T12:10:42.012Z,7.37
2019-02-12T12:13:10.406Z,5.90
2019-02-12T12:15:38.770Z,6.70
2019-02-12T12:18:07.391Z,5.97
2019-02-12T12:20:35.762Z,5.43
2019-02-12T12:23:04.986Z,6.30
2019-02-12T12:25:33.369Z,6.90
2019-02-12T12:28:01.758Z,5.33
2019-02-12T12:30:30.135Z,6.33
2019-02-12T12:32:58.545Z,4.73
2019-02-12T12:35:26.922Z,4.00
2019-02-12T12:37:55.305Z,4.27
2019-02-12T12:40:23.685Z,4.80
2019-02-12T12:42:52.074Z,3.77
2019-02-12T12:45:20.453Z,4.33
2019-02-12T12:47:48.838Z,3.72
2019-02-12T12:50:17.215Z,3.50
2019-02-12T12:52:45.600Z,3.90
2019-02-12T12:55:13.969Z,4.43
2019-02-12T12:57:42.440Z,3.80
2019-02-12T13:00:13.141Z,3.90
2019-02-12T13:02:41.585Z,3.70
2019-02-12T13:05:11.115Z,4.23
2019-02-12T13:07:39.601Z,3.73
2019-02-12T13:10:10.888Z,3.77
2019-02-12T13:12:39.262Z,3.93
2019-02-12T13:15:10.292Z,4.00
2019-02-12T13:17:38.666Z,3.50
2019-02-12T13:20:10.051Z,3.57
2019-02-12T13:22:38.419Z,4.10
2019-02-12T13:25:08.976Z,3.10
2019-02-12T13:27:37.391Z,4.10
2019-02-12T13:30:09.518Z,4.63
2019-02-12T13:32:37.885Z,3.70
2019-02-12T13:35:07.310Z,3.30
2019-02-12T13:37:35.677Z,3.53
2019-02-12T13:40:05.467Z,3.90
2019-02-12T13:42:33.832Z,3.83
2019-02-12T13:45:02.211Z,3.37
2019-02-12T13:47:30.583Z,3.20
2019-02-12T13:49:59.310Z,3.50
2019-02-12T13:52:27.724Z,3.90
2019-02-12T13:54:56.101Z,2.90
2019-02-12T13:57:24.746Z,3.10
2019-02-12T13:59:53.120Z,3.50
2019-02-12T14:02:21.498Z,3.13
2019-02-12T14:04:49.875Z,3.53
2019-02-12T14:07:18.251Z,3.45
2019-02-12T14:09:46.636Z,3.27
2019-02-12T14:12:15.861Z,2.70
2019-02-12T14:14:44.267Z,2.85
2019-02-12T14:17:12.639Z,3.07
2019-02-12T14:19:41.018Z,3.20
2019-02-12T14:22:09.395Z,3.47
2019-02-12T14:24:38.156Z,3.00
2019-02-12T14:27:06.513Z,2.93
2019-02-12T14:29:35.950Z,2.90
2019-02-12T14:32:04.319Z,3.37
2019-02-12T14:34:32.752Z,2.93
2019-02-12T14:37:01.121Z,3.30
2019-02-12T14:39:29.505Z,3.33
2019-02-12T14:41:57.875Z,2.90
2019-02-12T14:44:26.261Z,2.80
2019-02-12T14:46:54.630Z,2.80
2019-02-12T14:49:23.016Z,3.07
2019-02-12T14:51:51.377Z,2.63
2019-02-12T14:54:19.762Z,3.52
2019-02-12T14:56:48.131Z,2.60
2019-02-12T14:59:16.521Z,2.60
2019-02-12T15:01:44.890Z,2.53
2019-02-12T15:04:13.343Z,2.80
2019-02-12T15:06:41.719Z,2.60
2019-02-12T15:09:10.093Z,2.62
2019-02-12T15:11:38.470Z,2.77
2019-02-12T15:14:06.853Z,3.00
2019-02-12T15:16:36.153Z,3.20
2019-02-12T15:19:04.523Z,2.83
2019-02-12T15:21:32.913Z,2.90
2019-02-12T15:24:01.277Z,2.53
2019-02-12T15:26:29.669Z,2.70
2019-02-12T15:28:58.043Z,3.70
2019-02-12T15:31:26.426Z,3.27
2019-02-12T15:33:54.798Z,3.20
2019-02-12T15:36:23.183Z,2.80
2019-02-12T15:38:51.551Z,3.50
2019-02-12T15:41:19.933Z,3.00
2019-02-12T15:43:48.301Z,3.30
2019-02-12T15:46:16.692Z,3.57
2019-02-12T15:48:45.057Z,3.47
2019-02-12T15:51:13.437Z,3.17
2019-02-12T15:53:41.818Z,3.72
2019-02-12T15:56:10.199Z,3.57
2019-02-12T15:58:38.569Z,3.27
2019-02-12T16:01:06.956Z,3.60
2019-02-12T16:03:36.473Z,3.57
2019-02-12T16:06:05.433Z,3.20
2019-02-12T16:08:33.807Z,3.60
2019-02-12T16:11:02.198Z,3.77
2019-02-12T16:13:30.576Z,3.27
2019-02-12T16:15:58.973Z,2.90
2019-02-12T16:18:27.343Z,3.10
2019-02-12T16:20:55.720Z,3.40
2019-02-12T16:23:24.087Z,3.73
2019-02-12T16:25:59.329Z,2.90
2019-02-12T16:28:22.569Z,2.80
2019-02-12T16:30:50.960Z,3.00
2019-02-12T16:33:19.336Z,3.37
2019-02-12T16:35:47.715Z,2.73
2019-02-12T16:38:16.090Z,3.80
2019-02-12T16:40:44.477Z,3.03
2019-02-12T16:43:13.118Z,2.80
2019-02-12T16:45:50.432Z,2.50
2019-02-12T16:48:18.813Z,3.10
2019-02-12T16:50:47.190Z,2.70
2019-02-12T16:53:15.567Z,3.60
2019-02-12T16:55:43.942Z,2.80
2019-02-12T16:58:12.310Z,3.42
2019-02-12T17:00:40.691Z,3.30
2019-02-12T17:03:09.065Z,3.10
2019-02-12T17:05:37.518Z,2.80
2019-02-12T17:08:05.889Z,2.60
2019-02-12T17:10:34.272Z,3.17
2019-02-12T17:13:02.645Z,2.90
2019-02-12T17:15:31.031Z,2.57
2019-02-12T17:17:59.400Z,3.20
2019-02-12T17:20:27.767Z,3.07
2019-02-12T17:22:56.153Z,4.20
2019-02-12T17:25:24.521Z,2.67
2019-02-12T17:27:52.901Z,3.20
2019-02-12T17:30:21.274Z,3.17
2019-02-12T17:32:49.656Z,2.47
2019-02-12T17:35:18.024Z,2.83
2019-02-12T17:37:46.410Z,2.90
2019-02-12T17:40:18.833Z,2.57
2019-02-12T17:42:47.225Z,3.52
2019-02-12T17:45:17.791Z,2.90
2019-02-12T17:47:46.251Z,2.80
2019-02-12T17:50:15.558Z,3.27
2019-02-12T17:52:44.012Z,3.00
2019-02-12T17:55:12.376Z,2.70
2019-02-12T17:57:40.760Z,2.77
2019-02-12T18:00:13.506Z,3.20
2019-02-12T18:02:42.117Z,3.45
2019-02-12T18:05:10.554Z,2.90
2019-02-12T18:07:38.939Z,3.13
2019-02-12T18:10:09.857Z,3.53
2019-02-12T18:12:38.238Z,2.73
2019-02-12T18:15:10.206Z,3.33
2019-02-12T18:17:38.583Z,2.80
2019-02-12T18:20:10.598Z,2.95
2019-02-12T18:22:39.018Z,2.57
2019-02-12T18:25:09.772Z,2.40
2019-02-12T18:27:38.319Z,2.97
2019-02-12T18:30:10.000Z,3.20
2019-02-12T18:32:38.380Z,2.70
2019-02-12T18:35:07.793Z,2.90
2019-02-12T18:37:36.175Z,2.90
2019-02-12T18:40:10.552Z,2.70
2019-02-12T18:42:38.936Z,2.97
2019-02-12T18:45:10.682Z,2.67
2019-02-12T18:47:39.077Z,3.10
2019-02-12T18:50:10.422Z,2.93
2019-02-12T18:52:38.878Z,3.23
2019-02-12T18:55:10.594Z,3.17
2019-02-12T18:57:38.975Z,3.00
2019-02-12T19:00:13.885Z,3.20
2019-02-12T19:02:42.267Z,2.93
2019-02-12T19:05:11.102Z,2.80
2019-02-12T19:07:39.486Z,4.00
2019-02-12T19:10:10.983Z,2.90
2019-02-12T19:12:39.378Z,3.17
2019-02-12T19:15:11.162Z,3.05
2019-02-12T19:17:39.920Z,2.50
2019-02-12T19:20:13.178Z,4.03
2019-02-12T19:22:41.562Z,3.07
2019-02-12T19:25:10.868Z,3.07
2019-02-12T19:27:39.268Z,3.00
2019-02-12T19:30:12.103Z,3.40
2019-02-12T19:32:40.486Z,3.40
2019-02-12T19:35:10.500Z,2.20
2019-02-12T19:37:38.877Z,2.80
2019-02-12T19:40:09.839Z,2.80
2019-02-12T19:42:38.472Z,2.53
2019-02-12T19:45:10.227Z,3.00
2019-02-12T19:47:38.612Z,3.37
2019-02-12T19:50:08.968Z,2.97
2019-02-12T19:52:37.347Z,2.90
2019-02-12T19:55:08.059Z,3.50
2019-02-12T19:57:36.514Z,2.00
2019-02-12T20:00:08.599Z,2.83
2019-02-12T20:02:36.976Z,2.60
2019-02-12T20:05:08.459Z,3.30
2019-02-12T20:07:36.839Z,3.03
2019-02-12T20:10:07.850Z,2.90
2019-02-12T20:12:36.229Z,3.77
2019-02-12T20:15:07.440Z,3.77
2019-02-12T20:17:35.819Z,2.93
2019-02-12T20:20:05.332Z,3.10
2019-02-12T20:22:33.714Z,3.30
2019-02-12T20:25:02.080Z,3.40
2019-02-12T20:27:35.825Z,3.40
2019-02-12T20:30:00.576Z,3.03
2019-02-12T20:32:28.948Z,3.03
2019-02-12T20:34:57.320Z,3.00
2019-02-12T20:37:25.704Z,3.20
2019-02-12T20:39:54.101Z,3.60
2019-02-12T20:42:22.537Z,2.40
2019-02-12T20:44:50.927Z,2.63
2019-02-12T20:47:19.301Z,3.27
2019-02-12T20:49:47.731Z,2.33
2019-02-12T20:52:16.106Z,3.22
2019-02-12T20:54:44.524Z,3.72
2019-02-12T20:57:15.101Z,3.40
2019-02-12T20:59:43.003Z,2.87
2019-02-12T21:02:11.390Z,2.90
2019-02-12T21:04:39.771Z,2.97
2019-02-12T21:07:09.178Z,3.03
2019-02-12T21:09:37.558Z,3.00
2019-02-12T21:12:05.943Z,3.13
2019-02-12T21:14:34.483Z,2.67
2019-02-12T21:17:02.852Z,3.70
2019-02-12T21:19:31.310Z,4.13
2019-02-12T21:21:59.679Z,3.50
2019-02-12T21:24:28.059Z,2.67
2019-02-12T21:26:56.428Z,2.77
2019-02-12T21:29:24.921Z,2.87
2019-02-12T21:31:53.324Z,2.90
2019-02-12T21:34:21.705Z,4.70
2019-02-12T21:36:50.078Z,3.42
2019-02-12T21:39:20.102Z,2.87
2019-02-12T21:41:48.476Z,3.23
2019-02-12T21:44:16.860Z,3.10
2019-02-12T21:46:45.229Z,3.17
2019-02-12T21:49:13.613Z,2.67
2019-02-12T21:51:41.984Z,3.10
2019-02-12T21:54:10.374Z,2.87
2019-02-12T21:56:39.683Z,2.60
2019-02-12T21:59:08.078Z,2.80
2019-02-12T22:01:36.451Z,4.30
2019-02-12T22:04:05.026Z,2.90
2019-02-12T22:06:33.377Z,3.50
2019-02-12T22:09:01.764Z,3.10
2019-02-12T22:11:30.135Z,2.73
2019-02-12T22:13:58.516Z,3.00
2019-02-12T22:16:26.888Z,3.20
2019-02-12T22:18:55.532Z,3.40
2019-02-12T22:21:23.920Z,3.43
2019-02-12T22:23:52.315Z,2.83
2019-02-12T22:26:20.685Z,4.37
2019-02-12T22:28:49.083Z,2.90
2019-02-12T22:31:17.472Z,2.90
2019-02-12T22:33:45.854Z,3.33
2019-02-12T22:36:14.230Z,3.13
2019-02-12T22:38:42.689Z,2.60
2019-02-12T22:41:11.059Z,3.53
2019-02-12T22:43:39.997Z,3.30
2019-02-12T22:46:08.369Z,3.50
2019-02-12T22:48:36.737Z,2.83
2019-02-12T22:51:05.125Z,3.40
2019-02-12T22:53:33.496Z,2.90
2019-02-12T22:56:01.979Z,3.07
2019-02-12T22:58:30.334Z,3.50
2019-02-12T23:01:01.336Z,2.90
2019-02-12T23:03:29.702Z,2.30
2019-02-12T23:05:58.085Z,4.57
2019-02-12T23:08:26.449Z,3.33
2019-02-12T23:10:54.836Z,3.80
2019-02-12T23:13:23.247Z,3.47
2019-02-12T23:15:51.632Z,3.72
2019-02-12T23:18:20.007Z,3.80
2019-02-12T23:20:48.486Z,3.70
2019-02-12T23:23:16.864Z,3.37
2019-02-12T23:25:45.257Z,3.05
2019-02-12T23:28:13.625Z,3.00
2019-02-12T23:30:42.014Z,3.83
2019-02-12T23:33:10.385Z,4.13
2019-02-12T23:35:38.779Z,3.47
2019-02-12T23:38:07.197Z,4.07
2019-02-12T23:40:35.580Z,3.40
2019-02-12T23:43:03.947Z,3.40
2019-02-12T23:45:32.338Z,3.40
2019-02-12T23:48:00.746Z,2.50
2019-02-12T23:50:29.260Z,2.43
2019-02-12T23:52:58.108Z,2.80
2019-02-12T23:55:26.487Z,2.70
2019-02-12T23:57:54.859Z,3.52
